KCCB/CCB METAR and TAF weather

Enter ICAO airport designator
Station Type Date Time Source
KCCB METAR 2020/01/21 21:35 UTC NOAA

KCCB 212135Z AUTO 29007KT 10SM FEW018 OVC029 12/08 A3012 RMK AO2


Station Type Date Time Source
KCCB Decoded METAR 2020/01/21 21:35 UTC NOAA

Station name not available
Jan 21, 2020 - 04:35 PM EST / 2020.01.21 2135 UTC
Wind: from the WNW (290 degrees) at 8 MPH (7 KT):0
Visibility: 10 mile(s):0
Sky conditions: overcast
Temperature: 53 F (12 C)
Dew Point: 46 F (8 C)
Relative Humidity: 76%
Pressure (altimeter): 30.12 in. Hg (1019 hPa)
ob: KCCB 212135Z AUTO 29007KT 10SM FEW018 OVC029 12/08 A3012 RMK AO2
cycle: 21

Station Type Date Time Source
KCCB TAF UTC NOAA

Error!

Example: see airport list